M I D A S
Marine Information and Data Acquisition System
Tripno 307 of the Zeeleeuw from 2002-08-21 06:54:07 to 2002-08-21 15:43:45
Back to CruiseResearch ActivitiesStationsMapUnderway DataData graphs

EquipmentUnitsComments
TimeDGPSUTC
LatitudeDGPSDM.mWGS84
LongitudeDGPSDM.mWGS84
SpeedMeteo Stationm/sRelative wind speed
DirectionMeteo StationdegRelative wind direction
TemperatureMeteo Stationdeg CelciusAir temperature
PressureMeteo StationPaAtmospheric pressure
HumidityMeteo Station%Relative humidity
Missing or incorrect values are displayed as -999
Metereological data collected by the RV Zeeleeuw from 2002-08-21 06:54:07 to 2002-08-21 15:43:45
Time Latitude Longitude Speed Direction Temperature Pressure Humidity
2002-08-21 06:55 51°13.67 2°55.925 8.8 15 18.4 101510 83
2002-08-21 06:56 51°13.681 2°55.841 10 19 18.3 101520 83
2002-08-21 06:57 51°13.68 2°55.744 3.5 339 18.3 101540 83
2002-08-21 06:58 51°13.687 2°55.736 10 264 18.3 101520 83
2002-08-21 06:59 51°13.74 2°55.706 13.2 241 18.2 101480 83
2002-08-21 07:00 51°13.831 2°55.641 15.8 226 18.3 101480 84
2002-08-21 07:01 51°13.938 2°55.572 14.8 236 18.3 101480 83
2002-08-21 07:02 51°14.048 2°55.503 14.2 231 18.3 101490 82
2002-08-21 07:03 51°14.151 2°55.412 13.5 132 18.3 101480 82
2002-08-21 07:04 51°14.246 2°55.285 10.6 134 18.3 101500 83
2002-08-21 07:05 51°14.322 2°55.138 15.8 214 18.3 101490 84
2002-08-21 07:06 51°14.399 2°54.987 15.8 224 18.3 101480 84
2002-08-21 07:07 51°14.51 2°54.862 16.4 233 18.3 101490 83
2002-08-21 07:08 51°14.627 2°54.759 17.3 233 18.3 101470 83
2002-08-21 07:09 51°14.728 2°54.666 15.4 243 18.2 101470 83
2002-08-21 07:10 51°14.868 2°54.616 17.9 244 18.1 101450 83
2002-08-21 07:11 51°15.057 2°54.586 18.1 250 18.2 101460 84
2002-08-21 07:12 51°15.248 2°54.538 19.2 246 18.2 101470 83
2002-08-21 07:13 51°15.443 2°54.474 19.7 247 18.2 101480 84
2002-08-21 07:14 51°15.649 2°54.407 17.9 236 18.2 101480 84
2002-08-21 07:15 51°15.861 2°54.334 18.4 242 18.2 101480 84
2002-08-21 07:16 51°16.042 2°54.284 16.6 256 18.1 101460 83
2002-08-21 07:17 51°16.124 2°54.297 12.7 275 18.1 101480 84
2002-08-21 07:18 51°16.154 2°54.318 13 285 18.1 101490 83
2002-08-21 07:19 51°16.192 2°54.335 11.5 266 18.2 101490 84
2002-08-21 07:20 51°16.229 2°54.336 12 266 18.1 101490 83
2002-08-21 07:21 51°16.235 2°54.334 11.2 279 18.1 101510 84
2002-08-21 07:22 51°16.224 2°54.327 12.1 284 18.2 101500 85
2002-08-21 07:23 51°16.208 2°54.321 9.7 290 18.2 101490 84
2002-08-21 07:24 51°16.194 2°54.323 12.1 290 18.2 101500 84
2002-08-21 07:25 51°16.185 2°54.32 11.2 273 18.2 101500 84
2002-08-21 07:26 51°16.173 2°54.314 10.4 291 18.2 101500 84
2002-08-21 07:27 51°16.162 2°54.306 9.8 274 18.2 101490 84
2002-08-21 07:28 51°16.151 2°54.296 11.2 267 18.3 101500 85
2002-08-21 07:29 51°16.146 2°54.284 11.8 249 18.1 101490 83
2002-08-21 07:30 51°16.144 2°54.265 13.5 256 18.1 101500 83
2002-08-21 07:31 51°16.147 2°54.253 12.7 258 18 101480 82
2002-08-21 07:32 51°16.151 2°54.252 11 288 18.1 101490 84
2002-08-21 07:33 51°16.165 2°54.259 12.8 276 18.1 101490 83
2002-08-21 07:34 51°16.18 2°54.262 12.8 282 18.1 101490 83
2002-08-21 07:35 51°16.182 2°54.269 12.7 285 18.1 101490 82
2002-08-21 07:36 51°16.168 2°54.271 12.4 291 18 101480 82
2002-08-21 07:37 51°16.156 2°54.272 11.6 287 18.1 101500 82
2002-08-21 07:38 51°16.152 2°54.269 12.1 276 18.1 101500 83
2002-08-21 07:39 51°16.154 2°54.269 11 274 18.1 101500 83
2002-08-21 07:40 51°16.155 2°54.274 12.8 281 18.1 101500 83
2002-08-21 07:41 51°16.162 2°54.285 13.4 282 18.1 101500 82
2002-08-21 07:42 51°16.241 2°54.263 16.3 229 18.1 101480 82
2002-08-21 07:43 51°16.358 2°54.042 18.2 224 18.1 101500 83
2002-08-21 07:44 51°16.483 2°53.787 18.8 226 18.1 101510 83
2002-08-21 07:45 51°16.623 2°53.514 18 225 18 101500 82
2002-08-21 07:46 51°16.76 2°53.254 14.7 223 18.1 101510 83
2002-08-21 07:47 51°16.899 2°53.004 17.2 224 18.1 101510 85
2002-08-21 07:48 51°17.038 2°52.746 17.7 224 17.9 101500 84
2002-08-21 07:49 51°17.175 2°52.49 16.8 224 17.8 101520 84
2002-08-21 07:50 51°17.317 2°52.228 16.6 224 18 101530 85
2002-08-21 07:51 51°17.466 2°51.967 17.1 230 18 101510 85
2002-08-21 07:52 51°17.629 2°51.736 18.2 222 18.2 101510 86
2002-08-21 07:53 51°17.795 2°51.52 17.8 221 18 101510 84
2002-08-21 07:54 51°17.958 2°51.316 17.5 228 17.6 101510 86
2002-08-21 07:55 51°18.142 2°51.125 18.4 238 17.3 101510 87
2002-08-21 07:56 51°18.307 2°51.035 13.9 245 17 101520 89
2002-08-21 07:57 51°18.362 2°51 13.3 240 16.9 101520 89
2002-08-21 07:58 51°18.402 2°50.987 11.6 273 16.9 101510 90
2002-08-21 07:59 51°18.434 2°51.009 10 268 16.9 101530 90
2002-08-21 08:00 51°18.445 2°51.015 11 261 16.9 101500 90
2002-08-21 08:01 51°18.444 2°51.014 12.2 258 16.9 101510 90
2002-08-21 08:02 51°18.442 2°51.014 13.7 273 16.8 101520 90
2002-08-21 08:03 51°18.439 2°51.014 12.9 270 16.9 101510 90
2002-08-21 08:04 51°18.431 2°51.014 12.4 267 16.9 101510 89
2002-08-21 08:05 51°18.433 2°51.014 11.2 261 17.1 101510 89
2002-08-21 08:06 51°18.44 2°51.007 12.5 255 17.2 101530 88
2002-08-21 08:07 51°18.445 2°50.99 10.4 243 17.3 101530 87
2002-08-21 08:08 51°18.442 2°50.972 11.2 253 17.5 101540 87
2002-08-21 08:09 51°18.438 2°50.968 10 280 17.6 101530 86
2002-08-21 08:10 51°18.434 2°50.97 9.6 283 17.8 101530 86
2002-08-21 08:11 51°18.431 2°50.973 10.1 277 17.9 101530 85
2002-08-21 08:12 51°18.429 2°50.975 10 280 17.9 101530 84
2002-08-21 08:13 51°18.425 2°50.976 10.8 276 18 101540 84
2002-08-21 08:14 51°18.421 2°50.977 11.8 283 17.9 101530 83
2002-08-21 08:15 51°18.416 2°50.981 10.6 274 17.9 101530 82
2002-08-21 08:16 51°18.414 2°50.984 11.2 277 17.9 101530 82
2002-08-21 08:17 51°18.41 2°50.988 10.2 284 18 101530 83
2002-08-21 08:18 51°18.406 2°50.994 10.7 279 18.1 101550 84
2002-08-21 08:19 51°18.401 2°51 11.5 284 18.1 101550 83
2002-08-21 08:20 51°18.396 2°51.008 10.2 286 18 101530 82
2002-08-21 08:21 51°18.443 2°51.029 15 268 18.1 101530 83
2002-08-21 08:22 51°18.556 2°51.216 13.7 279 18.1 101520 83
2002-08-21 08:23 51°18.674 2°51.487 17.3 276 18.2 101520 83
2002-08-21 08:24 51°18.793 2°51.758 16 286 18.1 101490 82
2002-08-21 08:25 51°18.905 2°52.035 14.3 295 18 101480 82
2002-08-21 08:26 51°18.972 2°52.358 11.4 292 18.1 101530 82
2002-08-21 08:27 51°19.027 2°52.682 13.6 291 18.2 101540 83
2002-08-21 08:28 51°19.089 2°53.013 12.2 288 18.2 101520 83
2002-08-21 08:29 51°19.145 2°53.341 14.9 286 18.1 101520 82
2002-08-21 08:30 51°19.208 2°53.66 14.1 293 18.1 101520 81
2002-08-21 08:31 51°19.266 2°53.987 12.8 287 18.2 101530 82
2002-08-21 08:32 51°19.33 2°54.321 14.3 286 18.2 101540 82
2002-08-21 08:33 51°19.388 2°54.643 13.6 294 18.2 101520 81
2002-08-21 08:34 51°19.446 2°54.972 13.4 292 18.1 101520 81
2002-08-21 08:35 51°19.508 2°55.304 13.4 290 18.2 101540 82
2002-08-21 08:36 51°19.568 2°55.63 12.8 284 18.2 101540 82
2002-08-21 08:37 51°19.625 2°55.955 14.4 294 18.2 101520 82
2002-08-21 08:38 51°19.682 2°56.28 14.5 282 18.2 101540 81
2002-08-21 08:39 51°19.741 2°56.601 16.3 296 18.2 101510 81
2002-08-21 08:40 51°19.799 2°56.927 12 290 18.2 101530 81
2002-08-21 08:41 51°19.857 2°57.252 15.3 286 18.3 101530 82
2002-08-21 08:42 51°19.915 2°57.576 16.2 292 18.2 101500 81
2002-08-21 08:43 51°19.971 2°57.904 13.2 294 18.2 101540 81
2002-08-21 08:44 51°20.027 2°58.235 12.3 285 18.2 101530 81
2002-08-21 08:45 51°20.094 2°58.553 14.8 289 18.2 101530 82
2002-08-21 08:46 51°20.172 2°58.879 17.5 286 18.3 101530 82
2002-08-21 08:47 51°20.253 2°59.193 14.4 293 18.2 101530 81
2002-08-21 08:48 51°20.326 2°59.509 14.9 282 18.3 101560 81
2002-08-21 08:49 51°20.399 2°59.826 13.1 284 18.2 101540 81
2002-08-21 08:50 51°20.475 3°0.145 14.8 288 18.3 101530 81
2002-08-21 08:51 51°20.554 3°0.463 17.2 292 18.3 101530 81
2002-08-21 08:52 51°20.633 3°0.777 14.3 286 18.3 101530 82
2002-08-21 08:53 51°20.713 3°1.098 14.7 294 18.2 101520 81
2002-08-21 08:54 51°20.791 3°1.42 13.4 283 18.4 101510 82
2002-08-21 08:55 51°20.874 3°1.745 14.4 288 18.3 101530 81
2002-08-21 08:56 51°20.955 3°2.058 14.1 288 18.4 101540 81
2002-08-21 08:57 51°21.038 3°2.379 14.2 294 18.3 101530 81
2002-08-21 08:58 51°21.112 3°2.698 12.9 293 18.3 101530 80
2002-08-21 08:59 51°21.18 3°3.026 14.4 295 18.4 101540 81
2002-08-21 09:00 51°21.25 3°3.354 12.8 286 18.3 101530 81
2002-08-21 09:01 51°21.315 3°3.684 14.6 291 18.3 101540 82
2002-08-21 09:02 51°21.386 3°4.009 13.8 288 18.4 101520 82
2002-08-21 09:03 51°21.458 3°4.337 12.3 281 18.2 101530 81
2002-08-21 09:04 51°21.53 3°4.667 13.9 302 18.2 101520 81
2002-08-21 09:05 51°21.6 3°5.002 12.4 287 18.3 101530 81
2002-08-21 09:06 51°21.672 3°5.339 13.1 290 18.4 101540 82
2002-08-21 09:07 51°21.731 3°5.676 12 291 18.3 101540 81
2002-08-21 09:08 51°21.799 3°6.007 13 288 18.2 101540 81
2002-08-21 09:09 51°21.855 3°6.342 11.2 292 18.3 101540 81
2002-08-21 09:10 51°21.904 3°6.685 12.4 297 18.3 101540 82
2002-08-21 09:11 51°21.957 3°7.039 12.5 303 18.3 101530 82
2002-08-21 09:12 51°22.007 3°7.388 14.6 299 18.4 101530 82
2002-08-21 09:13 51°22.063 3°7.731 13.6 292 18.4 101540 82
2002-08-21 09:14 51°22.116 3°8.077 13.2 293 18.3 101540 82
2002-08-21 09:15 51°22.167 3°8.422 13.6 299 18.3 101540 81
2002-08-21 09:16 51°22.214 3°8.772 11.3 301 18.3 101530 81
2002-08-21 09:17 51°22.253 3°9.123 13.4 296 18.3 101530 81
2002-08-21 09:18 51°22.281 3°9.473 9.9 298 18.3 101540 81
2002-08-21 09:19 51°22.282 3°9.842 10.3 303 18.3 101560 81
2002-08-21 09:20 51°22.317 3°10.198 13.1 286 18.3 101540 82
2002-08-21 09:21 51°22.365 3°10.561 10.6 289 18.3 101530 82
2002-08-21 09:22 51°22.42 3°10.914 11.5 294 18.3 101540 82
2002-08-21 09:23 51°22.471 3°11.284 15.1 286 18.4 101530 82
2002-08-21 09:24 51°22.526 3°11.642 14.8 299 18.3 101540 82
2002-08-21 09:25 51°22.572 3°11.993 10 291 18.3 101540 82
2002-08-21 09:26 51°22.583 3°12.366 9.1 313 18.4 101540 82
2002-08-21 09:27 51°22.596 3°12.731 12.1 307 18.5 101550 83
2002-08-21 09:28 51°22.61 3°13.021 2.9 321 18.5 101530 83
2002-08-21 09:29 51°22.606 3°13.187 4.9 310 18.4 101550 83
2002-08-21 09:30 51°22.595 3°13.209 2 292 18.4 101550 82
2002-08-21 09:31 51°22.583 3°13.238 4.6 318 18.4 101550 82
2002-08-21 09:32 51°22.571 3°13.262 2 323 18.4 101550 83
2002-08-21 09:33 51°22.56 3°13.285 5.9 328 18.4 101550 83
2002-08-21 09:34 51°22.549 3°13.309 3.3 348 18.4 101550 83
2002-08-21 09:35 51°22.538 3°13.334 6.9 340 18.4 101550 83
2002-08-21 09:36 51°22.528 3°13.359 4.6 327 18.3 101540 82
2002-08-21 09:37 51°22.522 3°13.394 8.2 303 18.3 101540 82
2002-08-21 09:38 51°22.526 3°13.432 12.2 288 18.4 101530 83
2002-08-21 09:39 51°22.533 3°13.466 12.3 284 18.4 101530 82
2002-08-21 09:40 51°22.533 3°13.497 12.4 282 18.4 101530 82
2002-08-21 09:41 51°22.528 3°13.529 11 285 18.3 101530 82
2002-08-21 09:42 51°22.523 3°13.564 12.9 291 18.3 101530 81
2002-08-21 09:43 51°22.524 3°13.6 11.8 283 18.3 101540 82
2002-08-21 09:44 51°22.522 3°13.634 11.3 289 18.3 101540 81
2002-08-21 09:45 51°22.521 3°13.668 10.7 285 18.3 101540 82
2002-08-21 09:46 51°22.534 3°13.694 12.8 240 18.4 101550 82
2002-08-21 09:47 51°22.544 3°13.684 9.6 185 18.3 101550 82
2002-08-21 09:48 51°22.528 3°13.684 10.6 164 18.3 101540 82
2002-08-21 09:49 51°22.512 3°13.675 9.9 176 18.3 101540 82
2002-08-21 09:50 51°22.504 3°13.653 10.4 197 18.3 101540 82
2002-08-21 09:51 51°22.504 3°13.633 11 218 18.3 101550 82
2002-08-21 09:52 51°22.514 3°13.612 10.6 220 18.4 101550 83
2002-08-21 09:53 51°22.525 3°13.59 11.4 226 18.4 101550 83
2002-08-21 09:54 51°22.539 3°13.568 11.2 221 18.5 101560 83
2002-08-21 09:55 51°22.55 3°13.549 11.1 219 18.4 101550 82
2002-08-21 09:56 51°22.563 3°13.53 12.1 223 18.2 101550 80
2002-08-21 09:57 51°22.576 3°13.505 11.4 202 18.3 101540 81
2002-08-21 09:58 51°22.59 3°13.47 12.4 214 18.3 101550 81
2002-08-21 09:59 51°22.611 3°13.445 13.4 239 18.4 101560 82
2002-08-21 10:00 51°22.643 3°13.468 12.2 284 18.3 101540 81
2002-08-21 10:01 51°22.676 3°13.549 13.5 289 18.5 101550 82
2002-08-21 10:02 51°22.717 3°13.636 13.2 288 18.5 101550 81
2002-08-21 10:03 51°22.76 3°13.717 14.3 286 18.4 101530 81
2002-08-21 10:04 51°22.803 3°13.794 13.2 276 18.4 101540 81
2002-08-21 10:05 51°22.847 3°13.868 12.9 278 18.3 101530 81
2002-08-21 10:06 51°22.888 3°13.941 12.8 289 18.4 101530 81
2002-08-21 10:07 51°22.927 3°14.016 11.5 282 18.5 101530 82
2002-08-21 10:08 51°22.966 3°14.096 13.5 275 18.4 101540 81
2002-08-21 10:09 51°23.011 3°14.172 13 277 18.5 101530 81
2002-08-21 10:10 51°23.051 3°14.252 12.8 281 18.4 101530 81
2002-08-21 10:11 51°23.093 3°14.335 13.9 275 18.4 101540 81
2002-08-21 10:12 51°23.139 3°14.414 13 272 18.4 101540 82
2002-08-21 10:13 51°23.187 3°14.49 12 272 18.4 101530 81
2002-08-21 10:14 51°23.235 3°14.562 12.3 279 18.5 101540 82
2002-08-21 10:15 51°23.281 3°14.637 11.3 272 18.5 101520 82
2002-08-21 10:16 51°23.331 3°14.719 14.9 272 18.5 101510 82
2002-08-21 10:17 51°23.388 3°14.804 14.2 265 18.3 101510 81
2002-08-21 10:18 51°23.447 3°14.883 12 281 18.3 101540 81
2002-08-21 10:19 51°23.503 3°14.974 12.5 269 18.4 101520 82
2002-08-21 10:20 51°23.561 3°15.057 15.2 274 18.3 101530 81
2002-08-21 10:21 51°23.634 3°15.145 15.6 272 18.3 101510 81
2002-08-21 10:22 51°23.713 3°15.235 14.1 262 18.3 101500 81
2002-08-21 10:23 51°23.805 3°15.327 14.9 271 18.3 101500 81
2002-08-21 10:24 51°23.896 3°15.423 14.1 272 18.4 101510 81
2002-08-21 10:25 51°23.993 3°15.518 14.6 274 18.3 101500 81
2002-08-21 10:26 51°24.091 3°15.618 13.5 266 18.4 101480 81
2002-08-21 10:27 51°24.189 3°15.72 16.4 271 18.3 101480 80
2002-08-21 10:28 51°24.285 3°15.827 13 275 18.2 101490 80
2002-08-21 10:29 51°24.383 3°15.941 11.5 269 18.3 101490 81
2002-08-21 10:30 51°24.488 3°16.048 16.3 271 18.4 101500 81
2002-08-21 10:31 51°24.591 3°16.155 15.1 271 18.4 101490 81
2002-08-21 10:32 51°24.691 3°16.26 15 271 18.4 101490 81
2002-08-21 10:33 51°24.787 3°16.369 14 279 18.3 101500 81
2002-08-21 10:34 51°24.881 3°16.482 15.3 273 18.4 101490 82
2002-08-21 10:35 51°24.978 3°16.583 14.6 271 18.3 101490 82
2002-08-21 10:36 51°25.079 3°16.685 15.5 272 18.3 101500 82
2002-08-21 10:37 51°25.199 3°16.789 17.8 273 18.4 101480 82
2002-08-21 10:38 51°25.323 3°16.915 15.4 275 18.4 101490 83
2002-08-21 10:39 51°25.422 3°17.035 14.9 277 18.4 101480 82
2002-08-21 10:40 51°25.496 3°17.136 14.6 271 18.4 101490 82
2002-08-21 10:41 51°25.555 3°17.224 14.8 275 18.4 101490 82
2002-08-21 10:42 51°25.607 3°17.315 13.5 283 18.4 101490 82
2002-08-21 10:43 51°25.664 3°17.401 12.7 273 18.5 101490 83
2002-08-21 10:44 51°25.722 3°17.488 15.9 275 18.5 101490 82
2002-08-21 10:45 51°25.779 3°17.569 14.4 279 18.4 101500 81
2002-08-21 10:46 51°25.817 3°17.647 14 285 18.5 101500 82
2002-08-21 10:47 51°25.836 3°17.73 10.3 297 18.5 101500 83
2002-08-21 10:48 51°25.846 3°17.809 9.7 302 18.4 101490 82
2002-08-21 10:49 51°25.854 3°17.882 12.6 302 18.4 101500 83
2002-08-21 10:50 51°25.864 3°17.949 12.6 280 18.3 101510 82
2002-08-21 10:51 51°25.885 3°17.998 11.8 254 18.5 101510 84
2002-08-21 10:52 51°25.89 3°18.046 10.7 243 18.4 101520 82
2002-08-21 10:53 51°25.896 3°18.075 11.4 193 18.4 101510 83
2002-08-21 10:54 51°25.885 3°18.059 10.7 184 18.3 101500 81
2002-08-21 10:55 51°25.872 3°18.021 11.7 178 18.4 101500 83
2002-08-21 10:56 51°25.876 3°17.978 11.1 214 18.3 101510 81
2002-08-21 10:57 51°25.893 3°17.98 11.6 218 18.3 101520 82
2002-08-21 10:58 51°25.909 3°17.991 11 224 18.4 101510 83
2002-08-21 10:59 51°25.926 3°17.984 11.9 213 18.6 101520 84
2002-08-21 11:00 51°25.933 3°17.992 11.2 218 18.5 101500 82
2002-08-21 11:01 51°25.937 3°18.01 12.1 219 18.4 101520 82
2002-08-21 11:02 51°25.944 3°18.023 11.7 213 18.5 101520 83
2002-08-21 11:03 51°25.949 3°18.022 13.1 197 18.4 101520 80
2002-08-21 11:04 51°25.953 3°17.996 11.2 197 18.3 101500 81
2002-08-21 11:05 51°25.963 3°17.967 11.2 207 18.4 101490 82
2002-08-21 11:06 51°25.971 3°17.942 13.3 199 18.3 101510 82
2002-08-21 11:07 51°25.977 3°17.916 11.9 194 18.3 101500 81
2002-08-21 11:08 51°25.976 3°17.88 12.2 200 18.2 101480 81
2002-08-21 11:09 51°25.975 3°17.85 9.4 185 18.1 101490 80
2002-08-21 11:10 51°25.974 3°17.817 10.7 182 18.3 101490 83
2002-08-21 11:11 51°25.971 3°17.763 11.5 182 18.3 101490 81
2002-08-21 11:12 51°25.926 3°17.652 11.9 155 18.2 101490 81
2002-08-21 11:13 51°25.848 3°17.528 13 162 18.2 101490 81
2002-08-21 11:14 51°25.772 3°17.396 13.1 157 18.2 101500 82
2002-08-21 11:15 51°25.697 3°17.265 13.3 164 18.3 101490 82
2002-08-21 11:16 51°25.628 3°17.136 13.8 168 18.2 101490 82
2002-08-21 11:17 51°25.563 3°17.004 13.7 165 18.2 101490 82
2002-08-21 11:18 51°25.505 3°16.863 13.4 173 18.3 101500 82
2002-08-21 11:19 51°25.448 3°16.72 12.6 161 18.3 101490 83
2002-08-21 11:20 51°25.386 3°16.581 9.9 168 18.3 101510 82
2002-08-21 11:21 51°25.322 3°16.441 12.7 163 18.3 101510 82
2002-08-21 11:22 51°25.257 3°16.311 12.8 162 18.3 101520 82
2002-08-21 11:23 51°25.192 3°16.182 13.6 167 18.3 101510 83
2002-08-21 11:24 51°25.15 3°16.036 12.9 178 18.3 101500 82
2002-08-21 11:25 51°25.125 3°15.889 11.3 181 18.3 101500 82
2002-08-21 11:26 51°25.098 3°15.708 13.9 180 18.2 101490 80
2002-08-21 11:27 51°25.069 3°15.51 12 173 18.2 101500 81
2002-08-21 11:28 51°25.041 3°15.357 10.9 189 18.2 101490 80
2002-08-21 11:29 51°25.003 3°15.103 12.9 190 18.2 101490 81
2002-08-21 11:30 51°24.962 3°14.805 13.6 186 18.3 101480 81
2002-08-21 11:31 51°24.92 3°14.503 15.4 181 18.3 101480 81
2002-08-21 11:32 51°24.881 3°14.202 15.8 193 18.3 101470 81
2002-08-21 11:33 51°24.84 3°13.896 12.4 184 18.3 101480 81
2002-08-21 11:34 51°24.803 3°13.593 12.5 188 18.2 101470 81
2002-08-21 11:35 51°24.767 3°13.281 13.2 193 18.3 101480 82
2002-08-21 11:36 51°24.725 3°12.966 13.7 184 18.2 101480 81
2002-08-21 11:37 51°24.683 3°12.656 13.4 186 18.3 101490 82
2002-08-21 11:38 51°24.641 3°12.345 13.8 193 18.2 101480 82
2002-08-21 11:39 51°24.595 3°12.034 12.2 191 18.2 101480 82
2002-08-21 11:40 51°24.546 3°11.721 14.5 190 18.3 101500 82
2002-08-21 11:41 51°24.499 3°11.411 15.6 191 18.3 101490 82
2002-08-21 11:42 51°24.452 3°11.105 13.1 187 18.2 101490 82
2002-08-21 11:43 51°24.404 3°10.797 11.7 184 18.1 101480 80
2002-08-21 11:44 51°24.37 3°10.496 12.7 188 18.2 101490 81
2002-08-21 11:45 51°24.361 3°10.197 15.3 190 18.3 101490 82
2002-08-21 11:46 51°24.353 3°9.904 14.4 190 18.2 101500 82
2002-08-21 11:47 51°24.352 3°9.606 17.4 197 18.2 101500 82
2002-08-21 11:48 51°24.351 3°9.306 15.5 194 18.2 101500 81
2002-08-21 11:49 51°24.349 3°9.006 13.7 190 18.1 101500 80
2002-08-21 11:50 51°24.344 3°8.702 16.4 200 18.2 101510 81
2002-08-21 11:51 51°24.325 3°8.396 17.8 197 18.1 101490 79
2002-08-21 11:52 51°24.302 3°8.08 14.6 195 18.1 101480 79
2002-08-21 11:53 51°24.278 3°7.765 11.2 194 18.1 101490 80
2002-08-21 11:54 51°24.256 3°7.451 15.3 197 18.2 101520 82
2002-08-21 11:55 51°24.242 3°7.134 14.8 204 18.2 101510 82
2002-08-21 11:56 51°24.252 3°6.815 18.5 205 18.3 101520 82
2002-08-21 11:57 51°24.258 3°6.495 16.7 199 18.1 101500 81
2002-08-21 11:58 51°24.275 3°6.172 16.4 203 18.1 101510 80
2002-08-21 11:59 51°24.291 3°5.848 15.9 199 18.2 101500 82
2002-08-21 12:00 51°24.341 3°5.537 19.4 225 18.2 101510 81
2002-08-21 12:01 51°24.51 3°5.353 18.8 243 18.2 101520 83
2002-08-21 12:02 51°24.704 3°5.225 18.7 234 18.2 101520 84
2002-08-21 12:03 51°24.883 3°5.048 19.3 233 18 101510 83
2002-08-21 12:04 51°25.087 3°4.914 18.5 239 17.7 101520 85
2002-08-21 12:05 51°25.296 3°4.789 16.5 236 17.6 101520 85
2002-08-21 12:06 51°25.495 3°4.67 21.2 238 17.7 101500 85
2002-08-21 12:07 51°25.699 3°4.545 20.8 237 17.6 101530 84
2002-08-21 12:08 51°25.899 3°4.427 18.2 232 17.7 101480 86
2002-08-21 12:09 51°26.106 3°4.301 18.9 233 17.4 101530 86
2002-08-21 12:10 51°26.309 3°4.175 20.2 235 17.2 101510 87
2002-08-21 12:11 51°26.511 3°4.048 19.4 232 17.2 101520 88
2002-08-21 12:12 51°26.734 3°3.925 19.2 239 17.3 101480 89
2002-08-21 12:13 51°26.951 3°3.837 18.2 245 17.1 101510 89
2002-08-21 12:14 51°27.166 3°3.766 18 242 17 101470 89
2002-08-21 12:15 51°27.384 3°3.687 19 239 17.1 101550 89
2002-08-21 12:16 51°27.606 3°3.618 19.5 244 17.1 101500 89
2002-08-21 12:17 51°27.825 3°3.566 19.5 244 17.1 101490 88
2002-08-21 12:18 51°28.053 3°3.576 18.9 254 17.2 101470 88
2002-08-21 12:19 51°28.215 3°3.609 16.7 243 17.2 101520 87
2002-08-21 12:20 51°28.291 3°3.59 11.7 229 17.3 101550 86
2002-08-21 12:21 51°28.321 3°3.595 9 215 17.4 101560 86
2002-08-21 12:22 51°28.331 3°3.61 10.1 183 17.6 101560 86
2002-08-21 12:23 51°28.329 3°3.62 11.9 164 17.7 101550 85
2002-08-21 12:24 51°28.322 3°3.608 8.6 151 17.6 101550 84
2002-08-21 12:25 51°28.317 3°3.593 11.4 155 17.9 101560 85
2002-08-21 12:26 51°28.312 3°3.586 10.8 158 17.8 101550 82
2002-08-21 12:27 51°28.308 3°3.59 11.1 133 17.8 101560 83
2002-08-21 12:28 51°28.303 3°3.603 11.7 136 17.8 101550 81
2002-08-21 12:29 51°28.299 3°3.624 9.6 132 17.8 101550 81
2002-08-21 12:30 51°28.298 3°3.647 12 143 17.9 101560 81
2002-08-21 12:31 51°28.298 3°3.676 8 132 18 101560 81
2002-08-21 12:32 51°28.299 3°3.708 9.3 151 18.1 101570 82
2002-08-21 12:33 51°28.3 3°3.741 10.4 137 18 101570 81
2002-08-21 12:34 51°28.3 3°3.773 10.5 144 18 101570 82
2002-08-21 12:35 51°28.302 3°3.806 11.2 147 18.1 101560 82
2002-08-21 12:36 51°28.301 3°3.842 11.2 131 18 101570 82
2002-08-21 12:37 51°28.302 3°3.876 9.4 140 18 101570 81
2002-08-21 12:38 51°28.3 3°3.901 10.8 136 18 101580 82
2002-08-21 12:39 51°28.288 3°3.897 12.2 146 18 101560 81
2002-08-21 12:40 51°28.277 3°3.867 11.5 148 18 101570 82
2002-08-21 12:41 51°28.263 3°3.813 13.5 165 18.1 101560 81
2002-08-21 12:42 51°28.247 3°3.742 11.3 162 17.9 101560 80
2002-08-21 12:43 51°28.228 3°3.662 10.9 165 18 101550 80
2002-08-21 12:44 51°28.211 3°3.574 11.4 157 17.9 101550 80
2002-08-21 12:45 51°28.185 3°3.461 12.2 162 18 101570 80
2002-08-21 12:46 51°28.158 3°3.337 13.4 167 18.1 101560 81
2002-08-21 12:47 51°28.131 3°3.213 11.8 168 18 101550 80
2002-08-21 12:48 51°28.105 3°3.078 10.4 159 18.1 101570 80
2002-08-21 12:49 51°28.073 3°2.919 14.8 168 18.1 101560 81
2002-08-21 12:50 51°28.04 3°2.753 13.5 171 18.1 101550 81
2002-08-21 12:51 51°28.01 3°2.584 13.1 166 18 101570 80
2002-08-21 12:52 51°27.979 3°2.413 14.1 164 18.1 101550 80
2002-08-21 12:53 51°27.948 3°2.24 12.2 164 18.2 101570 81
2002-08-21 12:54 51°27.918 3°2.063 12.4 173 18.1 101560 81
2002-08-21 12:55 51°27.885 3°1.871 13 172 18 101550 79
2002-08-21 12:56 51°27.852 3°1.677 11.4 175 18 101570 80
2002-08-21 12:57 51°27.82 3°1.479 13.2 163 18.1 101580 81
2002-08-21 12:58 51°27.787 3°1.279 12.1 168 18.1 101570 81
2002-08-21 12:59 51°27.753 3°1.077 12.9 173 18 101570 81
2002-08-21 13:00 51°27.713 3°0.842 10.9 183 18 101560 81
2002-08-21 13:01 51°27.657 3°0.534 11.2 187 18 101560 80
2002-08-21 13:02 51°27.597 3°0.213 12.5 181 18 101550 80
2002-08-21 13:03 51°27.539 2°59.887 12.7 181 18 101550 80
2002-08-21 13:04 51°27.481 2°59.56 13.2 183 18 101570 80
2002-08-21 13:05 51°27.429 2°59.227 13.4 183 18 101560 80
2002-08-21 13:06 51°27.38 2°58.893 12.1 184 18.1 101570 81
2002-08-21 13:07 51°27.331 2°58.564 13.2 175 18 101550 79
2002-08-21 13:08 51°27.281 2°58.237 11.2 181 18.1 101560 81
2002-08-21 13:09 51°27.235 2°57.908 13 181 18.1 101570 80
2002-08-21 13:10 51°27.186 2°57.579 12.5 191 18.1 101560 81
2002-08-21 13:11 51°27.142 2°57.253 12.2 191 18 101570 80
2002-08-21 13:12 51°27.094 2°56.924 12.3 181 18 101550 79
2002-08-21 13:13 51°27.046 2°56.6 13.5 180 18 101570 79
2002-08-21 13:14 51°27 2°56.273 11.3 186 18.1 101540 79
2002-08-21 13:15 51°26.955 2°55.943 16.3 181 18 101560 78
2002-08-21 13:16 51°26.907 2°55.616 10.3 185 18.1 101600 79
2002-08-21 13:17 51°26.86 2°55.288 14.2 180 18.2 101560 79
2002-08-21 13:18 51°26.812 2°54.964 10.5 186 18.1 101560 78
2002-08-21 13:19 51°26.766 2°54.638 11.7 192 18.1 101580 78
2002-08-21 13:20 51°26.723 2°54.312 13.1 181 18.1 101560 78
2002-08-21 13:21 51°26.68 2°53.984 12.5 191 18.1 101590 79
2002-08-21 13:22 51°26.634 2°53.652 10.7 189 18 101580 79
2002-08-21 13:23 51°26.585 2°53.324 13.2 191 18.1 101580 79
2002-08-21 13:24 51°26.538 2°52.996 12.8 186 18 101570 79
2002-08-21 13:25 51°26.492 2°52.674 10.7 189 18.1 101570 79
2002-08-21 13:26 51°26.448 2°52.344 12.7 188 18 101580 78
2002-08-21 13:27 51°26.401 2°52.016 13.7 191 18.1 101570 78
2002-08-21 13:28 51°26.35 2°51.69 12.3 193 18 101580 77
2002-08-21 13:29 51°26.306 2°51.364 12 195 18.1 101570 78
2002-08-21 13:30 51°26.259 2°51.047 12.4 188 18.2 101590 78
2002-08-21 13:31 51°26.215 2°50.727 13.7 189 18.1 101590 78
2002-08-21 13:32 51°26.169 2°50.408 12.1 185 18.1 101590 78
2002-08-21 13:33 51°26.124 2°50.089 12.6 187 18.1 101600 78
2002-08-21 13:34 51°26.08 2°49.769 11 185 18.1 101600 77
2002-08-21 13:35 51°26.041 2°49.454 12.3 185 18.1 101580 77
2002-08-21 13:36 51°26.025 2°49.159 12.1 181 18.1 101600 78
2002-08-21 13:37 51°26.013 2°48.872 10.1 183 18.1 101590 77
2002-08-21 13:38 51°25.994 2°48.683 11.4 178 18.1 101590 77
2002-08-21 13:39 51°25.99 2°48.582 11.1 173 18.1 101610 76
2002-08-21 13:40 51°25.993 2°48.53 10 165 18.1 101630 76
2002-08-21 13:41 51°25.989 2°48.511 9.1 148 18.2 101630 77
2002-08-21 13:42 51°25.984 2°48.507 10.8 152 18.2 101620 78
2002-08-21 13:43 51°25.982 2°48.508 8.6 151 18.2 101630 77
2002-08-21 13:44 51°25.983 2°48.513 8.6 149 18.2 101630 77
2002-08-21 13:45 51°25.986 2°48.519 8.2 149 18.4 101630 79
2002-08-21 13:46 51°25.988 2°48.529 8.4 155 18.4 101620 77
2002-08-21 13:47 51°25.991 2°48.537 10.4 159 18.3 101630 78
2002-08-21 13:48 51°25.994 2°48.547 9.3 158 18.2 101630 77
2002-08-21 13:49 51°25.996 2°48.559 8.1 151 18.2 101620 77
2002-08-21 13:50 51°25.997 2°48.569 10 147 18.2 101630 77
2002-08-21 13:51 51°25.997 2°48.575 8.9 156 18.2 101630 77
2002-08-21 13:52 51°25.997 2°48.582 8.3 151 18.3 101630 77
2002-08-21 13:53 51°25.996 2°48.591 9.2 129 18.3 101630 77
2002-08-21 13:54 51°25.995 2°48.595 9.1 137 18.4 101630 78
2002-08-21 13:55 51°25.994 2°48.599 8.6 142 18.4 101630 77
2002-08-21 13:56 51°25.992 2°48.605 8.5 137 18.4 101630 77
2002-08-21 13:57 51°25.991 2°48.612 9.9 140 18.4 101640 77
2002-08-21 13:58 51°25.99 2°48.619 8.7 137 18.4 101630 77
2002-08-21 13:59 51°25.989 2°48.627 10.2 150 18.4 101630 77
2002-08-21 14:00 51°25.988 2°48.634 9.7 146 18.3 101630 76
2002-08-21 14:01 51°25.987 2°48.642 8.7 143 18.3 101630 76
2002-08-21 14:02 51°25.985 2°48.653 7.8 134 18.4 101640 77
2002-08-21 14:03 51°25.983 2°48.662 8.8 141 18.4 101640 77
2002-08-21 14:04 51°25.977 2°48.665 8.7 134 18.3 101640 77
2002-08-21 14:05 51°25.954 2°48.66 5.9 95 18.4 101650 77
2002-08-21 14:06 51°25.894 2°48.684 6.5 88 18.5 101660 78
2002-08-21 14:07 51°25.819 2°48.731 5.7 54 18.6 101650 79
2002-08-21 14:08 51°25.741 2°48.795 6.5 52 18.5 101660 78
2002-08-21 14:09 51°25.659 2°48.858 6.8 59 18.4 101660 77
2002-08-21 14:10 51°25.575 2°48.907 5.6 71 18.3 101660 77
2002-08-21 14:11 51°25.491 2°48.943 6.6 79 18.3 101660 78
2002-08-21 14:12 51°25.406 2°48.974 5.1 69 18.2 101660 77
2002-08-21 14:13 51°25.322 2°49.004 5.9 67 18.1 101660 78
2002-08-21 14:14 51°25.238 2°49.033 5 84 18.1 101660 79
2002-08-21 14:15 51°25.149 2°49.059 5.9 58 18.2 101660 80
2002-08-21 14:16 51°25.048 2°49.082 4.3 55 18.2 101660 80
2002-08-21 14:17 51°24.944 2°49.102 7.7 73 18.2 101670 79
2002-08-21 14:18 51°24.837 2°49.12 6.8 73 18.1 101660 79
2002-08-21 14:19 51°24.73 2°49.138 7.4 71 18 101660 78
2002-08-21 14:20 51°24.624 2°49.154 4.6 73 18 101660 79
2002-08-21 14:21 51°24.518 2°49.175 5.7 79 18.2 101670 80
2002-08-21 14:22 51°24.415 2°49.192 5.9 67 18.2 101660 79
2002-08-21 14:23 51°24.312 2°49.211 7.8 68 18.2 101670 80
2002-08-21 14:24 51°24.209 2°49.225 7.1 74 18.1 101670 79
2002-08-21 14:25 51°24.104 2°49.241 7.1 73 18.1 101660 79
2002-08-21 14:26 51°23.996 2°49.257 6.5 82 18.1 101670 79
2002-08-21 14:27 51°23.889 2°49.281 6.3 70 18.1 101670 78
2002-08-21 14:28 51°23.783 2°49.312 6.1 64 18 101670 78
2002-08-21 14:29 51°23.691 2°49.338 6.9 75 18 101670 79
2002-08-21 14:30 51°23.615 2°49.363 7.6 54 18.1 101670 80
2002-08-21 14:31 51°23.535 2°49.39 7 64 18 101680 78
2002-08-21 14:32 51°23.442 2°49.419 6.1 68 18.1 101670 78
2002-08-21 14:33 51°23.336 2°49.444 6 75 18.1 101670 78
2002-08-21 14:34 51°23.225 2°49.474 5.8 73 18.1 101680 78
2002-08-21 14:35 51°23.109 2°49.505 6.3 70 18.1 101670 78
2002-08-21 14:36 51°22.989 2°49.528 6.2 95 18.2 101670 79
2002-08-21 14:37 51°22.855 2°49.391 8.8 145 18.2 101670 78
2002-08-21 14:38 51°22.674 2°49.199 7.1 148 18.2 101660 78
2002-08-21 14:39 51°22.482 2°49.035 5 123 18.3 101670 79
2002-08-21 14:40 51°22.264 2°49.056 2.7 315 18.3 101680 78
2002-08-21 14:41 51°22.065 2°49.223 1.6 2 18.4 101690 79
2002-08-21 14:42 51°21.857 2°49.371 0.7 38 18.5 101690 79
2002-08-21 14:43 51°21.642 2°49.503 1.9 73 18.6 101690 78
2002-08-21 14:44 51°21.427 2°49.629 1.6 98 18.5 101690 78
2002-08-21 14:45 51°21.213 2°49.747 2.9 80 18.5 101690 78
2002-08-21 14:46 51°20.995 2°49.859 0.9 76 18.4 101690 77
2002-08-21 14:47 51°20.777 2°49.98 0.4 183 18.5 101690 78
2002-08-21 14:48 51°20.56 2°50.102 1.9 168 18.6 101690 78
2002-08-21 14:49 51°20.348 2°50.218 3.4 119 18.6 101690 78
2002-08-21 14:50 51°20.138 2°50.33 3.6 84 18.5 101690 77
2002-08-21 14:51 51°19.921 2°50.441 3 92 18.5 101690 77
2002-08-21 14:52 51°19.708 2°50.548 3.7 91 18.5 101690 77
2002-08-21 14:53 51°19.5 2°50.662 2.6 103 18.5 101690 78
2002-08-21 14:54 51°19.289 2°50.803 1.8 64 18.5 101700 78
2002-08-21 14:55 51°19.08 2°50.955 0.9 45 18.5 101690 78
2002-08-21 14:56 51°18.87 2°51.1 1.5 353 18.6 101700 78
2002-08-21 14:57 51°18.661 2°51.248 0.8 70 18.6 101700 78
2002-08-21 14:58 51°18.452 2°51.39 1.8 78 18.7 101690 78
2002-08-21 14:59 51°18.24 2°51.531 1.9 16 18.7 101700 78
2002-08-21 15:00 51°18.032 2°51.672 1.1 349 18.7 101700 78
2002-08-21 15:01 51°17.823 2°51.808 1.5 62 18.6 101700 77
2002-08-21 15:02 51°17.618 2°51.95 0.8 311 18.6 101700 77
2002-08-21 15:03 51°17.408 2°52.093 1.7 7 18.7 101700 77
2002-08-21 15:04 51°17.197 2°52.241 2.4 359 18.5 101690 76
2002-08-21 15:05 51°16.998 2°52.42 1.9 7 18.5 101700 76
2002-08-21 15:06 51°16.782 2°52.535 2.3 108 18.5 101690 76
2002-08-21 15:07 51°16.534 2°52.6 3.9 69 18.5 101700 76
2002-08-21 15:08 51°16.401 2°52.61 5.7 100 18.4 101690 75
2002-08-21 15:09 51°16.303 2°52.597 6.9 101 18.4 101690 75
2002-08-21 15:10 51°16.164 2°52.593 4.3 94 18.4 101690 75
2002-08-21 15:11 51°15.986 2°52.665 2.2 61 18.4 101700 75
2002-08-21 15:12 51°15.799 2°52.861 2.9 352 18.4 101700 75
2002-08-21 15:13 51°15.619 2°53.081 1.1 319 18.4 101700 76
2002-08-21 15:14 51°15.461 2°53.195 2.7 70 18.5 101700 76
2002-08-21 15:15 51°15.324 2°53.273 3.8 80 18.5 101690 76
2002-08-21 15:16 51°15.189 2°53.335 4 75 18.7 101700 77
2002-08-21 15:17 51°15.058 2°53.406 2.2 78 18.7 101700 76
2002-08-21 15:18 51°14.94 2°53.467 4.4 62 18.7 101690 76
2002-08-21 15:19 51°14.853 2°53.508 4.8 39 18.6 101690 75
2002-08-21 15:20 51°14.784 2°53.553 8 24 18.6 101700 74
2002-08-21 15:21 51°14.737 2°53.618 7.2 1 18.6 101710 75
2002-08-21 15:22 51°14.691 2°53.693 5.9 350 18.6 101710 74
2002-08-21 15:23 51°14.637 2°53.782 6.8 341 18.6 101710 74
2002-08-21 15:24 51°14.589 2°53.918 3.2 290 18.5 101710 73
2002-08-21 15:25 51°14.556 2°54.092 2.6 331 18.6 101710 73
2002-08-21 15:26 51°14.523 2°54.267 1.3 335 18.7 101710 74
2002-08-21 15:27 51°14.494 2°54.384 5.8 347 18.7 101710 74
2002-08-21 15:28 51°14.472 2°54.519 2.9 333 18.7 101710 73
2002-08-21 15:29 51°14.429 2°54.736 2.2 328 18.7 101700 74
2002-08-21 15:30 51°14.365 2°54.999 5 296 18.8 101710 74
2002-08-21 15:31 51°14.283 2°55.219 1.4 321 18.8 101710 73
2002-08-21 15:32 51°14.204 2°55.352 4.6 31 18.8 101710 73
2002-08-21 15:33 51°14.135 2°55.426 4.6 52 18.8 101710 73
2002-08-21 15:34 51°14.057 2°55.476 3.5 48 18.9 101700 73
2002-08-21 15:35 51°13.981 2°55.527 4.9 29 19 101700 73
2002-08-21 15:36 51°13.891 2°55.591 4.2 26 19 101700 74
2002-08-21 15:37 51°13.809 2°55.65 6 14 18.9 101700 73
2002-08-21 15:38 51°13.753 2°55.716 3.3 12 18.8 101690 73
2002-08-21 15:39 51°13.713 2°55.774 6 21 18.8 101700 73
2002-08-21 15:40 51°13.685 2°55.839 3.9 353 18.7 101700 73
2002-08-21 15:41 51°13.673 2°55.912 3.2 318 18.7 101700 74
2002-08-21 15:42 51°13.667 2°55.948 5.5 21 18.7 101700 73